createdAt,value
2023-06-02T00:00:40.907Z,3.95
2023-06-02T00:03:09.970Z,3.92
2023-06-02T00:05:39.478Z,3.78
2023-06-02T00:08:07.863Z,3.80
2023-06-02T00:10:35.983Z,4.28
2023-06-02T00:13:05.387Z,3.83
2023-06-02T00:15:34.489Z,3.80
2023-06-02T00:18:02.697Z,3.42
2023-06-02T00:20:33.019Z,3.10
2023-06-02T00:23:01.697Z,3.70
2023-06-02T00:25:29.810Z,3.85
2023-06-02T00:27:57.858Z,3.70
2023-06-02T00:30:28.216Z,3.10
2023-06-02T00:32:56.301Z,3.70
2023-06-02T00:35:24.468Z,3.58
2023-06-02T00:37:52.607Z,3.80
2023-06-02T00:40:20.772Z,3.85
2023-06-02T00:42:48.790Z,4.00
2023-06-02T00:45:17.780Z,3.90
2023-06-02T00:47:47.170Z,4.28
2023-06-02T00:50:15.137Z,3.70
2023-06-02T00:52:43.879Z,3.50
2023-06-02T00:55:12.208Z,3.97
2023-06-02T00:57:41.606Z,3.78
2023-06-02T01:00:11.505Z,3.83
2023-06-02T01:02:39.545Z,3.30
2023-06-02T01:05:12.057Z,3.67
2023-06-02T01:07:46.418Z,4.03
2023-06-02T01:10:17.156Z,3.92
2023-06-02T01:12:46.130Z,3.95
2023-06-02T01:15:14.630Z,3.70
2023-06-02T01:17:47.381Z,3.78
2023-06-02T01:20:22.378Z,3.83
2023-06-02T01:25:33.706Z,3.70
2023-06-02T01:28:03.995Z,3.70
2023-06-02T01:30:32.833Z,3.85
2023-06-02T01:33:09.681Z,4.05
2023-06-02T01:35:44.011Z,3.90
2023-06-02T01:38:12.710Z,3.67
2023-06-02T01:40:42.820Z,3.80
2023-06-02T01:43:12.224Z,3.65
2023-06-02T01:45:41.399Z,3.30
2023-06-02T01:48:10.004Z,3.58
2023-06-02T01:50:39.511Z,3.67
2023-06-02T01:53:07.957Z,3.50
2023-06-02T01:55:36.247Z,3.20
2023-06-02T01:58:05.600Z,3.63
2023-06-02T02:00:33.569Z,4.15
2023-06-02T02:03:01.597Z,3.58
2023-06-02T02:05:29.583Z,3.83
2023-06-02T02:07:58.562Z,4.30
2023-06-02T02:10:26.808Z,3.97
2023-06-02T02:12:54.816Z,3.72
2023-06-02T02:15:24.400Z,3.63
2023-06-02T02:17:52.542Z,3.88
2023-06-02T02:20:21.219Z,4.20
2023-06-02T02:22:49.427Z,3.60
2023-06-02T02:25:17.459Z,4.10
2023-06-02T02:27:45.512Z,3.65
2023-06-02T02:30:13.760Z,3.58
2023-06-02T02:32:45.737Z,3.38
2023-06-02T02:35:14.141Z,3.83
2023-06-02T02:37:47.314Z,3.70
2023-06-02T02:40:17.351Z,4.28
2023-06-02T02:42:45.656Z,4.20
2023-06-02T02:45:13.630Z,4.07
2023-06-02T02:47:42.951Z,3.63
2023-06-02T02:50:11.937Z,3.33
2023-06-02T02:52:39.871Z,3.63
2023-06-02T02:55:08.814Z,4.03
2023-06-02T02:57:37.802Z,3.90
2023-06-02T03:00:08.807Z,3.60
2023-06-02T03:02:36.814Z,4.18
2023-06-02T03:05:07.992Z,3.80
2023-06-02T03:07:36.637Z,3.15
2023-06-02T03:10:04.848Z,3.65
2023-06-02T03:12:32.820Z,3.45
2023-06-02T03:15:02.765Z,3.30
2023-06-02T03:17:31.178Z,3.05
2023-06-02T03:19:59.321Z,3.20
2023-06-02T03:22:30.155Z,3.10
2023-06-02T03:24:58.184Z,3.50
2023-06-02T03:27:26.353Z,3.03
2023-06-02T03:29:54.362Z,3.95
2023-06-02T03:32:22.323Z,3.50
2023-06-02T03:34:50.498Z,3.35
2023-06-02T03:37:18.508Z,3.47
2023-06-02T03:39:47.764Z,3.08
2023-06-02T03:42:15.972Z,3.00
2023-06-02T03:44:44.027Z,2.97
2023-06-02T03:47:11.934Z,3.35
2023-06-02T03:49:40.148Z,3.28
2023-06-02T03:52:08.362Z,3.00
2023-06-02T03:54:36.278Z,3.38
2023-06-02T03:57:06.102Z,3.55
2023-06-02T03:59:34.645Z,3.20
2023-06-02T04:02:02.606Z,3.85
2023-06-02T04:04:30.750Z,3.78
2023-06-02T04:06:58.852Z,4.95
2023-06-02T04:09:26.871Z,3.65
2023-06-02T04:11:54.906Z,3.70
2023-06-02T04:14:24.224Z,3.40
2023-06-02T04:16:52.244Z,3.90
2023-06-02T04:19:20.288Z,3.78
2023-06-02T04:21:48.446Z,3.30
2023-06-02T04:24:16.350Z,4.00
2023-06-02T04:26:44.286Z,3.92
2023-06-02T04:29:12.330Z,3.60
2023-06-02T04:31:43.514Z,3.95
2023-06-02T04:34:12.385Z,4.22
2023-06-02T04:36:40.512Z,4.45
2023-06-02T04:39:09.072Z,3.85
2023-06-02T04:41:37.534Z,3.90
2023-06-02T04:44:07.376Z,4.20
2023-06-02T04:46:36.579Z,3.55
2023-06-02T04:49:10.669Z,3.60
2023-06-02T04:51:39.292Z,3.65
2023-06-02T04:54:07.526Z,3.70
2023-06-02T04:56:36.876Z,3.45
2023-06-02T04:59:05.153Z,3.30
2023-06-02T05:01:34.224Z,3.17
2023-06-02T05:04:02.293Z,3.05
2023-06-02T05:06:31.837Z,3.70
2023-06-02T05:08:59.793Z,3.15
2023-06-02T05:11:27.759Z,3.53
2023-06-02T05:13:56.617Z,3.17
2023-06-02T05:16:25.819Z,3.38
2023-06-02T05:18:53.814Z,3.25
2023-06-02T05:21:21.718Z,3.38
2023-06-02T05:23:51.610Z,3.17
2023-06-02T05:26:19.561Z,3.38
2023-06-02T05:28:47.544Z,3.40
2023-06-02T05:31:15.465Z,3.05
2023-06-02T05:33:43.459Z,3.10
2023-06-02T05:36:11.399Z,3.00
2023-06-02T05:38:44.022Z,3.80
2023-06-02T05:41:13.598Z,3.15
2023-06-02T05:43:41.484Z,3.20
2023-06-02T05:46:09.452Z,4.93
2023-06-02T05:48:37.500Z,3.88
2023-06-02T05:51:05.473Z,4.50
2023-06-02T05:53:33.535Z,3.72
2023-06-02T05:56:01.850Z,3.50
2023-06-02T05:58:32.563Z,3.53
2023-06-02T06:01:00.848Z,3.42
2023-06-02T06:03:28.924Z,3.20
2023-06-02T06:05:56.999Z,3.47
2023-06-02T06:08:24.984Z,3.25
2023-06-02T06:10:52.931Z,3.25
2023-06-02T06:13:21.032Z,3.22
2023-06-02T06:15:50.549Z,3.42
2023-06-02T06:18:20.556Z,3.80
2023-06-02T06:20:48.573Z,3.63
2023-06-02T06:23:17.094Z,3.67
2023-06-02T06:25:45.194Z,3.60
2023-06-02T06:28:13.180Z,3.60
2023-06-02T06:30:41.497Z,3.40
2023-06-02T06:33:11.213Z,3.55
2023-06-02T06:35:39.113Z,3.70
2023-06-02T06:38:07.066Z,4.05
2023-06-02T06:40:35.039Z,3.90
2023-06-02T06:43:15.090Z,3.65
2023-06-02T06:45:51.487Z,3.72
2023-06-02T06:48:21.192Z,3.88
2023-06-02T06:50:49.949Z,5.97
2023-06-02T06:53:18.192Z,3.60
2023-06-02T06:55:46.692Z,3.58
2023-06-02T06:58:14.703Z,3.60
2023-06-02T07:00:42.680Z,3.50
2023-06-02T07:03:10.750Z,3.60
2023-06-02T07:05:40.197Z,3.75
2023-06-02T07:08:08.241Z,5.65
2023-06-02T07:10:36.231Z,5.03
2023-06-02T07:13:04.242Z,3.40
2023-06-02T07:15:32.180Z,3.72
2023-06-02T07:18:00.289Z,3.45
2023-06-02T07:20:28.334Z,3.83
2023-06-02T07:22:57.785Z,3.50
2023-06-02T07:25:25.763Z,3.40
2023-06-02T07:27:54.849Z,3.00
2023-06-02T07:30:23.051Z,3.53
2023-06-02T07:32:51.060Z,3.30
2023-06-02T07:35:19.278Z,3.03
2023-06-02T07:37:47.216Z,3.22
2023-06-02T07:40:16.463Z,3.03
2023-06-02T07:42:44.374Z,3.60
2023-06-02T07:45:12.637Z,3.03
2023-06-02T07:47:40.654Z,3.45
2023-06-02T07:50:09.240Z,2.78
2023-06-02T07:52:37.376Z,3.45
2023-06-02T07:55:05.882Z,3.05
2023-06-02T07:57:35.185Z,3.20
2023-06-02T08:00:12.360Z,3.30
2023-06-02T08:02:41.648Z,2.70
2023-06-02T08:05:10.790Z,2.80
2023-06-02T08:07:38.917Z,3.55
2023-06-02T08:10:08.137Z,5.82
2023-06-02T08:12:37.617Z,6.45
2023-06-02T08:15:06.467Z,3.38
2023-06-02T08:17:34.477Z,3.40
2023-06-02T08:20:03.391Z,3.30
2023-06-02T08:22:33.381Z,2.90
2023-06-02T08:25:02.022Z,3.45
2023-06-02T08:27:30.025Z,2.90
2023-06-02T08:29:59.528Z,3.25
2023-06-02T08:32:27.954Z,3.42
2023-06-02T08:34:57.897Z,4.40
2023-06-02T08:37:26.382Z,3.53
2023-06-02T08:39:54.476Z,3.15
2023-06-02T08:42:23.774Z,3.50
2023-06-02T08:44:51.765Z,3.38
2023-06-02T08:47:25.678Z,3.22
2023-06-02T08:49:53.985Z,3.22
2023-06-02T08:52:24.107Z,2.90
2023-06-02T08:54:52.682Z,2.97
2023-06-02T08:57:23.789Z,3.10
2023-06-02T08:59:53.193Z,3.00
2023-06-02T09:02:22.634Z,3.35
2023-06-02T09:04:50.858Z,2.85
2023-06-02T09:07:25.171Z,3.00
2023-06-02T09:09:58.468Z,2.85
2023-06-02T09:12:27.205Z,3.00
2023-06-02T09:15:11.574Z,2.80
2023-06-02T09:17:41.057Z,2.72
2023-06-02T09:20:12.809Z,2.50
2023-06-02T09:22:57.043Z,2.55
2023-06-02T09:25:26.793Z,3.10
2023-06-02T09:27:56.920Z,3.22
2023-06-02T09:30:25.227Z,2.90
2023-06-02T09:32:56.695Z,3.03
2023-06-02T09:35:38.339Z,2.72
2023-06-02T09:38:08.466Z,2.67
2023-06-02T09:40:36.860Z,3.42
2023-06-02T09:43:06.707Z,2.80
2023-06-02T09:45:35.583Z,3.53
2023-06-02T09:48:18.640Z,2.63
2023-06-02T09:50:46.952Z,2.85
2023-06-02T09:53:17.122Z,2.83
2023-06-02T09:55:45.764Z,2.75
2023-06-02T09:58:14.284Z,3.00
2023-06-02T10:00:42.670Z,2.70
2023-06-02T10:03:12.512Z,2.40
2023-06-02T10:05:49.767Z,2.72
2023-06-02T10:08:28.879Z,2.60
2023-06-02T10:11:09.952Z,2.50
2023-06-02T10:13:58.001Z,2.70
2023-06-02T10:16:48.622Z,2.17
2023-06-02T10:19:53.075Z,2.30
2023-06-02T10:22:40.414Z,2.47
2023-06-02T10:25:18.173Z,2.47
2023-06-02T10:27:49.236Z,2.60
2023-06-02T10:30:21.447Z,2.35
2023-06-02T10:32:51.716Z,2.30
2023-06-02T10:35:21.193Z,2.47
2023-06-02T10:37:49.997Z,2.25
2023-06-02T10:40:18.046Z,4.38
2023-06-02T10:43:11.264Z,3.10
2023-06-02T10:45:41.330Z,2.88
2023-06-02T10:48:40.819Z,2.38
2023-06-02T10:51:11.831Z,2.40
2023-06-02T10:54:16.194Z,2.67
2023-06-02T10:56:46.446Z,2.42
2023-06-02T10:59:32.749Z,2.50
2023-06-02T11:02:00.899Z,2.40
2023-06-02T11:04:30.721Z,2.42
2023-06-02T11:07:27.777Z,2.53
2023-06-02T11:09:57.335Z,2.35
2023-06-02T11:13:02.507Z,2.47
2023-06-02T11:15:30.450Z,2.35
2023-06-02T11:17:58.542Z,2.20
2023-06-02T11:20:35.898Z,2.22
2023-06-02T11:23:08.477Z,2.40
2023-06-02T11:25:36.685Z,2.20
2023-06-02T11:28:04.624Z,2.40
2023-06-02T11:30:32.790Z,2.30
2023-06-02T11:33:01.042Z,3.63
2023-06-02T11:35:29.234Z,2.55
2023-06-02T11:38:06.222Z,2.28
2023-06-02T11:40:38.573Z,2.45
2023-06-02T11:43:06.621Z,2.42
2023-06-02T11:45:36.119Z,2.50
2023-06-02T11:48:07.009Z,2.63
2023-06-02T11:50:35.656Z,2.58
2023-06-02T11:53:04.028Z,2.60
2023-06-02T11:55:33.975Z,2.22
2023-06-02T11:58:24.394Z,2.58
2023-06-02T12:00:53.458Z,2.65
2023-06-02T12:03:21.566Z,2.35
2023-06-02T12:05:51.050Z,2.60
2023-06-02T12:08:23.823Z,1.98
2023-06-02T12:10:52.441Z,2.25
2023-06-02T12:13:28.877Z,2.28
2023-06-02T12:15:57.856Z,2.20
2023-06-02T12:18:30.818Z,2.38
2023-06-02T12:21:01.644Z,2.08
2023-06-02T12:23:47.765Z,2.08
2023-06-02T12:26:16.559Z,2.30
2023-06-02T12:28:46.328Z,2.17
2023-06-02T12:31:14.898Z,2.13
2023-06-02T12:33:44.170Z,2.53
2023-06-02T12:36:12.552Z,2.03
2023-06-02T12:38:41.577Z,2.50
2023-06-02T12:41:12.755Z,2.10
2023-06-02T12:43:41.701Z,2.45
2023-06-02T12:46:12.791Z,2.15
2023-06-02T12:48:41.285Z,2.40
2023-06-02T12:51:09.480Z,2.28
2023-06-02T12:53:38.239Z,2.08
2023-06-02T12:56:06.874Z,2.30
2023-06-02T12:58:35.761Z,2.08
2023-06-02T13:01:04.080Z,2.10
2023-06-02T13:03:33.836Z,2.53
2023-06-02T13:06:03.489Z,2.60
2023-06-02T13:08:31.829Z,1.85
2023-06-02T13:11:00.341Z,2.25
2023-06-02T13:13:29.186Z,2.10
2023-06-02T13:15:58.221Z,2.58
2023-06-02T13:18:26.494Z,2.20
2023-06-02T13:20:56.449Z,2.08
2023-06-02T13:23:24.731Z,2.35
2023-06-02T13:25:52.900Z,2.00
2023-06-02T13:28:20.899Z,2.10
2023-06-02T13:30:48.806Z,2.00
2023-06-02T13:33:16.823Z,2.17
2023-06-02T13:35:45.118Z,2.33
2023-06-02T13:38:14.446Z,2.75
2023-06-02T13:40:42.421Z,2.20
2023-06-02T13:43:11.084Z,2.28
2023-06-02T13:45:39.118Z,2.70
2023-06-02T13:48:08.104Z,2.72
2023-06-02T13:50:36.244Z,2.25
2023-06-02T13:53:04.625Z,2.47
2023-06-02T13:55:36.283Z,2.95
2023-06-02T13:58:04.221Z,2.60
2023-06-02T14:00:32.193Z,2.60
2023-06-02T14:03:00.323Z,2.70
2023-06-02T14:05:28.399Z,3.10
2023-06-02T14:07:56.410Z,2.63
2023-06-02T14:10:24.387Z,2.60
2023-06-02T14:12:53.704Z,2.53
2023-06-02T14:15:21.640Z,2.50
2023-06-02T14:17:49.661Z,2.97
2023-06-02T14:20:17.673Z,2.60
2023-06-02T14:22:46.021Z,2.60
2023-06-02T14:25:13.989Z,2.90
2023-06-02T14:27:42.137Z,2.38
2023-06-02T14:30:12.056Z,2.72
2023-06-02T14:32:40.192Z,2.45
2023-06-02T14:35:08.821Z,2.42
2023-06-02T14:37:36.983Z,2.78
2023-06-02T14:40:05.478Z,2.35
2023-06-02T14:42:33.473Z,2.70
2023-06-02T14:45:01.585Z,2.85
2023-06-02T14:47:34.421Z,2.78
2023-06-02T14:50:02.731Z,2.60
2023-06-02T14:52:30.714Z,2.28
2023-06-02T14:54:58.777Z,2.45
2023-06-02T14:57:27.742Z,2.30
2023-06-02T14:59:55.749Z,2.65
2023-06-02T15:02:23.899Z,2.72
2023-06-02T15:04:53.271Z,2.50
2023-06-02T15:07:22.594Z,2.58
2023-06-02T15:09:50.699Z,2.35
2023-06-02T15:12:19.005Z,2.60
2023-06-02T15:14:47.593Z,2.83
2023-06-02T15:17:15.729Z,2.88
2023-06-02T15:19:44.311Z,2.55
2023-06-02T15:22:13.731Z,2.70
2023-06-02T15:24:43.022Z,3.15
2023-06-02T15:27:12.452Z,2.88
2023-06-02T15:29:40.580Z,2.80
2023-06-02T15:32:09.931Z,3.22
2023-06-02T15:34:37.975Z,3.00
2023-06-02T15:37:06.536Z,3.30
2023-06-02T15:39:36.090Z,2.88
2023-06-02T15:42:04.053Z,3.25
2023-06-02T15:44:32.022Z,2.92
2023-06-02T15:46:59.999Z,2.97
2023-06-02T15:49:29.296Z,3.08
2023-06-02T15:51:57.868Z,2.97
2023-06-02T15:54:26.358Z,3.10
2023-06-02T15:56:57.376Z,2.83
2023-06-02T15:59:26.162Z,2.78
2023-06-02T16:01:55.018Z,2.88
2023-06-02T16:04:24.028Z,2.60
2023-06-02T16:06:53.200Z,2.67
2023-06-02T16:09:22.426Z,2.50
2023-06-02T16:11:50.410Z,2.60
2023-06-02T16:14:19.798Z,2.75
2023-06-02T16:16:47.852Z,3.05
2023-06-02T16:19:17.659Z,2.65
2023-06-02T16:21:45.913Z,6.72
2023-06-02T16:24:13.835Z,2.70
2023-06-02T16:26:41.888Z,2.90
2023-06-02T16:29:10.627Z,2.60
2023-06-02T16:31:40.094Z,2.50
2023-06-02T16:34:08.093Z,2.65
2023-06-02T16:36:36.102Z,2.60
2023-06-02T16:39:04.740Z,2.88
2023-06-02T16:41:32.858Z,3.05
2023-06-02T16:44:00.923Z,2.97
2023-06-02T16:46:29.056Z,2.85
2023-06-02T16:48:58.434Z,3.17
2023-06-02T16:51:26.930Z,4.78
2023-06-02T16:53:55.060Z,2.90
2023-06-02T16:56:23.241Z,3.10
2023-06-02T16:58:53.668Z,3.22
2023-06-02T17:01:21.643Z,4.25
2023-06-02T17:03:49.619Z,3.70
2023-06-02T17:06:20.267Z,3.83
2023-06-02T17:08:48.206Z,3.92
2023-06-02T17:11:16.098Z,4.22
2023-06-02T17:13:44.044Z,4.22
2023-06-02T17:16:12.075Z,5.25
2023-06-02T17:18:40.190Z,5.95
2023-06-02T17:21:08.357Z,4.45
2023-06-02T17:23:37.825Z,5.28
2023-06-02T17:26:06.363Z,5.03
2023-06-02T17:28:34.532Z,5.78
2023-06-02T17:31:04.118Z,4.65
2023-06-02T17:33:32.368Z,5.10
2023-06-02T17:36:00.353Z,5.03
2023-06-02T17:38:28.320Z,4.88
2023-06-02T17:40:57.791Z,4.80
2023-06-02T17:43:27.794Z,4.20
2023-06-02T17:45:57.292Z,4.15
2023-06-02T17:48:27.448Z,3.97
2023-06-02T17:50:56.162Z,6.25
2023-06-02T17:53:24.096Z,4.22
2023-06-02T17:55:52.446Z,4.72
2023-06-02T17:58:22.399Z,3.88
2023-06-02T18:00:50.577Z,3.83
2023-06-02T18:03:18.656Z,3.92
2023-06-02T18:05:46.648Z,4.07
2023-06-02T18:08:14.719Z,4.07
2023-06-02T18:10:42.952Z,3.90
2023-06-02T18:13:11.125Z,4.00
2023-06-02T18:15:40.526Z,3.58
2023-06-02T18:18:08.720Z,3.63
2023-06-02T18:20:37.400Z,3.53
2023-06-02T18:23:05.700Z,3.92
2023-06-02T18:25:34.205Z,5.43
2023-06-02T18:28:02.233Z,6.82
2023-06-02T18:30:31.396Z,4.07
2023-06-02T18:33:00.804Z,5.22
2023-06-02T18:35:29.585Z,4.60
2023-06-02T18:37:57.578Z,3.88
2023-06-02T18:40:25.596Z,3.50
2023-06-02T18:42:53.544Z,3.40
2023-06-02T18:45:21.699Z,3.03
2023-06-02T18:47:50.110Z,2.88
2023-06-02T18:50:19.681Z,3.63
2023-06-02T18:52:47.671Z,2.78
2023-06-02T18:55:15.699Z,2.80
2023-06-02T18:57:43.723Z,3.00
2023-06-02T19:00:13.353Z,3.10
2023-06-02T19:02:51.000Z,3.80
2023-06-02T19:05:20.582Z,2.92
2023-06-02T19:07:48.570Z,2.88
2023-06-02T19:10:16.734Z,2.70
2023-06-02T19:12:44.732Z,2.53
2023-06-02T19:15:14.363Z,2.70
2023-06-02T19:17:42.439Z,3.15
2023-06-02T19:20:11.711Z,2.83
2023-06-02T19:22:41.035Z,2.60
2023-06-02T19:25:09.860Z,2.83
2023-06-02T19:27:38.008Z,3.17
2023-06-02T19:30:06.730Z,2.80
2023-06-02T19:32:34.769Z,2.28
2023-06-02T19:35:04.230Z,3.22
2023-06-02T19:37:32.405Z,2.83
2023-06-02T19:40:01.840Z,2.65
2023-06-02T19:42:30.735Z,2.28
2023-06-02T19:44:59.254Z,2.63
2023-06-02T19:47:27.463Z,2.55
2023-06-02T19:49:55.500Z,2.33
2023-06-02T19:52:23.718Z,2.30
2023-06-02T19:54:51.670Z,2.47
2023-06-02T19:57:21.455Z,2.60
2023-06-02T19:59:51.375Z,2.90
2023-06-02T20:02:19.566Z,2.53
2023-06-02T20:04:49.946Z,4.85
2023-06-02T20:07:17.973Z,3.00
2023-06-02T20:09:48.488Z,3.20
2023-06-02T20:12:16.424Z,2.75
2023-06-02T20:14:46.306Z,4.10
2023-06-02T20:17:14.358Z,2.83
2023-06-02T20:19:42.987Z,5.55
2023-06-02T20:22:11.090Z,2.45
2023-06-02T20:24:39.012Z,3.45
2023-06-02T20:27:07.354Z,2.90
2023-06-02T20:29:35.712Z,3.08
2023-06-02T20:32:05.520Z,2.80
2023-06-02T20:34:33.480Z,2.33
2023-06-02T20:37:01.702Z,2.60
2023-06-02T20:39:29.752Z,2.45
2023-06-02T20:41:57.861Z,2.22
2023-06-02T20:44:25.821Z,2.30
2023-06-02T20:46:53.727Z,2.40
2023-06-02T20:49:23.164Z,2.13
2023-06-02T20:51:51.579Z,2.42
2023-06-02T20:54:19.531Z,2.40
2023-06-02T20:56:47.499Z,2.78
2023-06-02T20:59:15.870Z,2.60
2023-06-02T21:01:43.829Z,2.30
2023-06-02T21:04:11.745Z,2.58
2023-06-02T21:06:41.126Z,2.25
2023-06-02T21:09:10.165Z,2.50
2023-06-02T21:11:38.086Z,2.42
2023-06-02T21:14:06.043Z,2.80
2023-06-02T21:16:34.056Z,2.65
2023-06-02T21:19:02.052Z,3.15
2023-06-02T21:21:29.983Z,2.50
2023-06-02T21:23:59.293Z,2.80
2023-06-02T21:26:27.278Z,2.55
2023-06-02T21:28:55.389Z,2.85
2023-06-02T21:31:23.392Z,2.15
2023-06-02T21:33:51.384Z,1.98
2023-06-02T21:36:20.311Z,2.25
2023-06-02T21:38:48.928Z,2.80
2023-06-02T21:41:18.294Z,2.03
2023-06-02T21:43:46.630Z,2.08
2023-06-02T21:46:14.633Z,2.05
2023-06-02T21:48:42.627Z,1.85
2023-06-02T21:51:10.715Z,2.10
2023-06-02T21:53:38.613Z,1.77
2023-06-02T21:56:06.857Z,2.00
2023-06-02T21:58:36.316Z,1.48
2023-06-02T22:01:04.552Z,1.70
2023-06-02T22:03:32.893Z,1.73
2023-06-02T22:06:00.912Z,1.35
2023-06-02T22:08:28.931Z,1.80
2023-06-02T22:11:00.982Z,1.75
2023-06-02T22:13:28.981Z,1.63
2023-06-02T22:15:58.306Z,1.77
2023-06-02T22:18:26.237Z,1.88
2023-06-02T22:20:54.187Z,1.75
2023-06-02T22:23:22.256Z,1.92
2023-06-02T22:25:50.293Z,1.90
2023-06-02T22:28:18.199Z,1.63
2023-06-02T22:30:46.212Z,1.67
2023-06-02T22:33:15.466Z,1.70
2023-06-02T22:35:43.437Z,1.80
2023-06-02T22:38:11.404Z,1.50
2023-06-02T22:40:39.578Z,1.90
2023-06-02T22:43:07.839Z,1.77
2023-06-02T22:45:35.733Z,1.92
2023-06-02T22:48:03.754Z,1.85
2023-06-02T22:50:33.380Z,2.10
2023-06-02T22:53:01.631Z,1.83
2023-06-02T22:55:29.787Z,2.10
2023-06-02T22:57:57.705Z,1.70
2023-06-02T23:00:25.660Z,1.90
2023-06-02T23:02:53.694Z,1.60
2023-06-02T23:05:22.155Z,1.67
2023-06-02T23:07:51.885Z,1.90
2023-06-02T23:10:19.904Z,1.65
2023-06-02T23:12:47.803Z,1.70
2023-06-02T23:15:18.115Z,1.83
2023-06-02T23:17:46.163Z,1.55
2023-06-02T23:20:14.357Z,1.50
2023-06-02T23:22:42.311Z,1.50
2023-06-02T23:25:11.975Z,1.60
2023-06-02T23:27:39.945Z,1.63
2023-06-02T23:30:09.482Z,1.75
2023-06-02T23:32:38.066Z,1.75
2023-06-02T23:35:06.922Z,1.75
2023-06-02T23:37:34.885Z,1.42
2023-06-02T23:40:02.953Z,1.60
2023-06-02T23:42:32.271Z,1.70
2023-06-02T23:45:00.321Z,1.88
2023-06-02T23:47:28.343Z,1.85
2023-06-02T23:49:56.242Z,1.55
2023-06-02T23:52:24.388Z,1.35
2023-06-02T23:54:52.536Z,1.30
2023-06-02T23:57:20.492Z,1.40
2023-06-02T23:59:49.784Z,1.60
